Time;durP1;ratioP1;P1;durP2;ratioP2;P2;SDS_P1;SDS_P2;PMS_P1;PMS_P2;Temp;Humidity;BMP_temperature;BMP_pressure;BME280_temperature;BME280_humidity;BME280_pressure;Samples;Min_cycle;Max_cycle;Signal;HPM_P1;HPM_P2
2021/09/29 00:01:22;;;;;;;4.33;3.83;;;;;;;14.60;66.95;101915.53;6123741;28;20204;-52
2021/09/29 00:04:43;;;;;;;3.97;2.83;;;;;;;14.57;67.14;101905.03;6120680;28;20846;-50
2021/09/29 00:08:05;;;;;;;5.80;2.67;;;;;;;14.60;66.91;101905.03;6124755;28;20235;-51
2021/09/29 00:11:27;;;;;;;7.67;3.30;;;;;;;14.45;67.50;101899.88;6122515;29;20227;-53
2021/09/29 00:14:48;;;;;;;3.00;2.70;;;;;;;14.34;67.45;101905.19;6121443;29;20227;-48
2021/09/29 00:18:09;;;;;;;9.13;3.30;;;;;;;14.51;66.92;101891.97;6119849;28;20235;-53
2021/09/29 00:21:31;;;;;;;5.10;3.37;;;;;;;14.61;66.74;101890.16;6122131;29;20243;-49
2021/09/29 00:24:51;;;;;;;4.33;3.33;;;;;;;14.38;67.53;101893.81;6111814;28;20511;-50
2021/09/29 00:28:14;;;;;;;4.33;3.23;;;;;;;14.57;66.76;101878.84;6118048;28;20231;-53
2021/09/29 00:31:36;;;;;;;5.60;3.50;;;;;;;14.42;66.83;101886.78;6122794;28;20208;-52
2021/09/29 00:34:57;;;;;;;6.40;3.53;;;;;;;14.74;65.98;101881.31;6118895;28;21469;-49
2021/09/29 00:38:18;;;;;;;9.27;3.17;;;;;;;14.53;66.61;101883.19;6122339;28;20239;-52
2021/09/29 00:41:39;;;;;;;4.27;3.27;;;;;;;14.38;67.09;101876.34;6117095;29;20560;-49
2021/09/29 00:45:02;;;;;;;4.50;3.10;;;;;;;14.35;67.42;101873.75;6117072;28;22030;-50
2021/09/29 00:48:23;;;;;;;4.27;3.40;;;;;;;14.14;67.77;101864.28;6121865;28;20232;-51
2021/09/29 00:51:44;;;;;;;4.50;3.53;;;;;;;14.12;68.14;101859.94;6117718;29;20278;-48
2021/09/29 00:55:08;;;;;;;5.50;3.10;;;;;;;14.26;67.95;101858.09;6121319;28;20633;-52
2021/09/29 00:58:29;;;;;;;5.40;3.47;;;;;;;13.94;68.50;101858.34;6118495;28;20345;-54
2021/09/29 01:01:52;;;;;;;6.33;2.80;;;;;;;13.96;68.60;101860.06;6118636;28;22055;-49
2021/09/29 01:05:14;;;;;;;4.33;3.47;;;;;;;14.16;67.81;101852.06;6113604;29;20192;-53
2021/09/29 01:08:40;;;;;;;6.73;3.80;;;;;;;14.25;67.67;101853.75;6122156;28;20667;-50
2021/09/29 01:12:05;;;;;;;4.50;3.37;;;;;;;14.10;67.43;101852.09;6119785;28;20215;-53
2021/09/29 01:15:30;;;;;;;4.40;3.37;;;;;;;13.92;68.27;101845.25;6117093;29;20208;-51
2021/09/29 01:18:57;;;;;;;4.07;3.47;;;;;;;13.89;68.88;101841.78;6116716;28;20254;-54
2021/09/29 01:22:22;;;;;;;3.97;3.27;;;;;;;13.62;69.16;101837.56;6117729;28;20519;-53
2021/09/29 01:25:52;;;;;;;5.63;3.53;;;;;;;13.97;68.20;101829.50;6121743;28;20204;-49
2021/09/29 01:29:19;;;;;;;4.90;3.77;;;;;;;13.82;68.78;101829.59;6121379;28;20234;-53
2021/09/29 01:32:41;;;;;;;7.17;3.80;;;;;;;14.03;67.98;101831.19;6120155;28;20310;-52
2021/09/29 01:36:02;;;;;;;4.47;3.20;;;;;;;14.04;68.20;101825.09;6121875;29;20211;-52
2021/09/29 01:39:26;;;;;;;4.47;3.43;;;;;;;14.03;67.82;101823.34;6120253;28;20254;-52
2021/09/29 01:42:47;;;;;;;4.07;2.90;;;;;;;13.69;68.78;101823.59;6122137;28;20826;-51
2021/09/29 01:46:09;;;;;;;5.97;3.43;;;;;;;13.71;68.49;101821.81;6117802;28;20204;-52
2021/09/29 01:49:35;;;;;;;4.63;3.30;;;;;;;13.66;68.54;101813.13;6125056;28;23086;-52
2021/09/29 01:52:58;;;;;;;5.60;4.10;;;;;;;13.56;69.07;101812.31;6119761;28;20314;-52
2021/09/29 01:56:19;;;;;;;5.17;2.77;;;;;;;13.27;70.42;101804.56;6123916;29;20208;-48
2021/09/29 01:59:43;;;;;;;6.23;3.40;;;;;;;13.17;70.72;101793.28;6122153;28;20238;-54
2021/09/29 02:03:05;;;;;;;5.57;3.70;;;;;;;13.35;69.99;101793.22;6121069;28;20620;-53
2021/09/29 02:06:26;;;;;;;4.20;3.50;;;;;;;13.34;69.98;101795.84;6118951;29;20639;-51
2021/09/29 02:09:48;;;;;;;3.77;3.20;;;;;;;13.51;69.36;101786.16;6126129;29;20223;-47
2021/09/29 02:13:08;;;;;;;4.20;3.83;;;;;;;13.39;69.64;101791.44;6120238;28;20243;-51
2021/09/29 02:16:29;;;;;;;5.50;3.53;;;;;;;13.36;69.49;101783.63;6119301;29;20215;-52
2021/09/29 02:19:51;;;;;;;5.50;4.00;;;;;;;13.53;69.43;101783.53;6113326;28;20243;-54
2021/09/29 02:23:12;;;;;;;5.70;3.67;;;;;;;13.47;69.39;101783.56;6119237;28;20243;-51
2021/09/29 02:26:34;;;;;;;3.77;3.50;;;;;;;13.63;69.06;101773.88;6124202;29;20195;-52
2021/09/29 02:29:55;;;;;;;5.20;3.50;;;;;;;13.68;68.70;101778.19;6121810;29;20224;-53
2021/09/29 02:33:16;;;;;;;6.97;4.00;;;;;;;13.62;69.13;101772.13;6119986;28;20597;-48
2021/09/29 02:36:39;;;;;;;3.50;3.20;;;;;;;13.67;68.44;101766.00;6121085;29;20199;-54
2021/09/29 02:40:00;;;;;;;4.33;3.93;;;;;;;13.45;68.92;101770.47;6125723;29;20243;-52
2021/09/29 02:43:21;;;;;;;8.90;3.90;;;;;;;13.42;69.11;101756.56;6123775;28;20230;-51
2021/09/29 02:46:43;;;;;;;4.43;4.03;;;;;;;13.25;70.06;101754.88;6124392;28;22056;-48
2021/09/29 02:50:05;;;;;;;7.27;4.37;;;;;;;13.55;69.00;101753.88;6122480;29;20219;-54
2021/09/29 02:53:29;;;;;;;4.07;3.20;;;;;;;13.43;69.59;101753.91;6123066;28;20231;-49
2021/09/29 02:56:50;;;;;;;5.80;4.13;;;;;;;13.36;70.91;101754.84;6121292;28;20621;-50
2021/09/29 03:00:12;;;;;;;6.17;3.73;;;;;;;13.49;69.45;101758.25;6122427;28;20565;-52
2021/09/29 03:03:33;;;;;;;9.10;4.07;;;;;;;13.69;68.63;101742.44;6120834;28;20563;-54
2021/09/29 03:06:54;;;;;;;8.40;4.97;;;;;;;13.56;69.25;101746.88;6122567;28;20204;-50
2021/09/29 03:10:17;;;;;;;4.47;3.97;;;;;;;13.50;69.69;101733.84;6126884;29;20219;-53
2021/09/29 03:13:39;;;;;;;4.67;4.27;;;;;;;13.59;68.94;101734.66;6118006;28;20239;-50
2021/09/29 03:17:00;;;;;;;7.73;6.57;;;;;;;13.37;71.15;101738.25;6118588;28;20207;-50
2021/09/29 03:20:21;;;;;;;7.53;6.63;;;;;;;13.67;69.67;101733.72;6121264;29;20594;-52
2021/09/29 03:23:42;;;;;;;10.03;7.77;;;;;;;13.67;69.46;101734.59;6121165;28;20227;-50
2021/09/29 03:27:05;;;;;;;7.53;4.97;;;;;;;13.82;68.77;101724.88;6125478;28;20286;-53
2021/09/29 03:30:26;;;;;;;7.30;4.90;;;;;;;13.70;69.17;101712.75;6120279;29;20208;-52
2021/09/29 03:33:48;;;;;;;6.00;5.27;;;;;;;13.49;70.06;101717.28;6121988;28;20231;-52
2021/09/29 03:37:09;;;;;;;12.80;7.70;;;;;;;13.37;71.43;101717.34;6121309;28;20235;-52
2021/09/29 03:40:30;;;;;;;7.30;5.33;;;;;;;13.39;71.21;101707.72;6125931;29;20207;-52
2021/09/29 03:43:53;;;;;;;7.00;5.23;;;;;;;13.38;70.70;101703.38;6120626;28;20565;-52
2021/09/29 03:47:14;;;;;;;6.50;4.83;;;;;;;13.27;71.43;101700.78;6123711;28;20231;-49
2021/09/29 03:50:35;;;;;;;5.23;4.17;;;;;;;13.46;70.49;101695.50;6122444;29;20474;-52
2021/09/29 03:53:56;;;;;;;4.87;4.17;;;;;;;13.57;70.20;101689.28;6121795;28;20778;-51
2021/09/29 03:57:17;;;;;;;7.60;4.20;;;;;;;13.48;70.37;101699.81;6119861;28;20231;-49
2021/09/29 04:00:40;;;;;;;6.20;3.83;;;;;;;13.54;69.63;101694.53;6119464;29;20605;-54
2021/09/29 04:04:00;;;;;;;4.53;4.13;;;;;;;13.72;68.87;101692.66;6118817;28;20716;-51
2021/09/29 04:07:21;;;;;;;4.87;3.43;;;;;;;13.63;69.49;101683.16;6122009;28;20239;-54
2021/09/29 04:10:43;;;;;;;6.60;3.67;;;;;;;13.54;69.53;101684.06;6126820;28;20554;-52
2021/09/29 04:14:04;;;;;;;13.50;9.87;;;;;;;13.77;69.37;101680.41;6121380;28;20231;-52
2021/09/29 04:17:26;;;;;;;14.10;12.80;;;;;;;13.74;69.66;101683.03;6120873;28;20235;-51
2021/09/29 04:20:47;;;;;;;16.07;12.70;;;;;;;13.66;69.78;101679.63;6122891;29;20294;-49
2021/09/29 04:24:10;;;;;;;14.10;12.47;;;;;;;13.70;69.59;101676.09;6119139;29;20243;-54
2021/09/29 04:27:31;;;;;;;9.03;7.50;;;;;;;13.59;69.08;101670.97;6120524;28;20242;-54
2021/09/29 04:30:51;;;;;;;15.57;12.80;;;;;;;13.84;68.85;101665.50;6118675;29;20204;-50
2021/09/29 04:34:14;;;;;;;19.13;17.30;;;;;;;13.68;69.06;101665.63;6119606;28;20314;-54
2021/09/29 04:37:35;;;;;;;12.03;10.83;;;;;;;13.76;68.98;101662.97;6117570;28;20231;-51
2021/09/29 04:40:56;;;;;;;12.10;9.30;;;;;;;13.90;68.73;101660.22;6123277;29;20223;-51
2021/09/29 04:44:17;;;;;;;7.47;6.67;;;;;;;13.85;68.98;101657.63;6120147;28;20270;-51
2021/09/29 04:47:38;;;;;;;5.40;4.70;;;;;;;13.78;69.22;101650.72;6121410;28;20285;-52
2021/09/29 04:51:00;;;;;;;5.73;4.43;;;;;;;13.88;69.13;101648.88;6115929;29;20199;-51
2021/09/29 04:54:21;;;;;;;5.87;4.30;;;;;;;13.73;68.92;101647.28;6115098;28;21897;-53
2021/09/29 04:57:42;;;;;;;5.70;5.10;;;;;;;13.56;69.31;101650.91;6120225;28;20235;-53
2021/09/29 05:01:03;;;;;;;6.70;4.73;;;;;;;13.16;70.80;101648.56;6121688;28;20588;-50
2021/09/29 05:04:25;;;;;;;10.93;4.83;;;;;;;13.34;70.16;101638.88;6119887;28;20322;-52
2021/09/29 05:07:51;;;;;;;11.33;5.67;;;;;;;13.53;70.05;101640.47;6115792;28;20338;-52
2021/09/29 05:11:20;;;;;;;6.07;4.13;;;;;;;13.59;69.78;101637.81;6117983;29;20203;-52
2021/09/29 05:14:40;;;;;;;7.63;5.30;;;;;;;13.79;68.86;101631.53;6115724;28;20235;-54
2021/09/29 05:18:01;;;;;;;11.90;5.63;;;;;;;13.78;69.27;101624.53;6134898;28;20778;-52
2021/09/29 05:21:22;;;;;;;10.43;4.47;;;;;;;13.69;69.61;101622.03;6144594;28;20223;-51
2021/09/29 05:24:45;;;;;;;8.20;5.23;;;;;;;13.92;68.76;101625.28;6124662;28;20326;-53
2021/09/29 05:28:07;;;;;;;8.63;4.37;;;;;;;13.84;68.70;101634.09;6125828;28;21203;-52
2021/09/29 05:31:29;;;;;;;11.83;4.97;;;;;;;13.63;69.68;101617.72;6126731;28;20203;-49
2021/09/29 05:34:50;;;;;;;8.87;5.43;;;;;;;13.66;69.02;101615.06;6129006;28;20521;-52
2021/09/29 05:38:11;;;;;;;9.53;4.90;;;;;;;13.86;68.98;101601.78;6135444;28;20551;-51
2021/09/29 05:41:34;;;;;;;5.93;5.30;;;;;;;13.81;69.07;101603.56;6135601;29;20191;-51
2021/09/29 05:44:55;;;;;;;6.77;4.43;;;;;;;13.66;69.29;101596.72;6147893;29;20223;-52
2021/09/29 05:48:16;;;;;;;10.43;7.23;;;;;;;13.49;70.23;101607.38;6141638;28;20322;-53
2021/09/29 05:51:37;;;;;;;11.63;9.60;;;;;;;13.89;69.32;101612.22;6149688;29;20636;-52
2021/09/29 05:54:57;;;;;;;10.17;4.97;;;;;;;13.68;69.54;101612.44;6148625;28;20593;-51
2021/09/29 05:58:20;;;;;;;6.23;4.63;;;;;;;13.73;69.89;101605.41;6129224;28;22802;-51
2021/09/29 06:01:41;;;;;;;5.87;4.93;;;;;;;13.85;69.59;101600.03;6141451;29;20192;-54
2021/09/29 06:05:02;;;;;;;7.17;4.73;;;;;;;14.04;68.89;101595.47;6144147;29;20223;-50
2021/09/29 06:08:23;;;;;;;6.90;5.03;;;;;;;14.34;67.95;101589.00;6143802;29;20278;-51
2021/09/29 06:11:44;;;;;;;7.67;4.90;;;;;;;14.09;68.23;101588.41;6141931;29;20200;-53
2021/09/29 06:15:07;;;;;;;8.20;4.30;;;;;;;14.09;68.48;101588.41;6142246;28;20235;-47
2021/09/29 06:18:28;;;;;;;8.00;6.67;;;;;;;14.28;67.98;101586.47;6142032;28;20258;-51
2021/09/29 06:21:49;;;;;;;9.83;4.80;;;;;;;14.35;67.88;101584.66;6139671;28;20224;-51
2021/09/29 06:25:10;;;;;;;5.67;5.00;;;;;;;14.29;68.05;101579.50;6141704;29;20219;-51
2021/09/29 06:28:37;;;;;;;8.17;5.40;;;;;;;14.49;67.46;101581.84;6145095;28;20232;-52
2021/09/29 06:31:59;;;;;;;7.73;4.57;;;;;;;14.37;67.70;101596.84;6144450;28;20203;-54
2021/09/29 06:35:20;;;;;;;8.50;4.60;;;;;;;14.28;68.03;101581.22;6145322;29;20231;-50
2021/09/29 06:38:40;;;;;;;5.20;4.00;;;;;;;14.57;67.37;101578.25;6144115;28;20223;-52
2021/09/29 06:42:02;;;;;;;6.33;4.40;;;;;;;14.71;67.37;101587.69;6143289;28;20204;-52
2021/09/29 06:45:23;;;;;;;11.23;4.87;;;;;;;14.87;66.57;101578.72;6139890;29;20545;-49
2021/09/29 06:48:45;;;;;;;8.30;5.07;;;;;;;14.52;68.14;101581.78;6139723;28;20240;-54
2021/09/29 06:52:06;;;;;;;7.83;4.23;;;;;;;14.56;67.06;101573.91;6142533;28;20246;-51
2021/09/29 06:55:27;;;;;;;6.90;5.03;;;;;;;14.73;67.17;101573.69;6145934;29;20212;-52
2021/09/29 06:58:51;;;;;;;7.37;4.53;;;;;;;14.52;67.89;101566.06;6147103;28;20231;-48
2021/09/29 07:02:12;;;;;;;7.53;4.67;;;;;;;15.01;66.67;101564.53;6137229;28;20240;-47
2021/09/29 07:05:35;;;;;;;6.13;4.53;;;;;;;14.63;67.46;101563.34;6142958;29;20203;-51
2021/09/29 07:08:56;;;;;;;10.27;4.73;;;;;;;15.11;66.08;101566.97;6144043;28;20331;-53
2021/09/29 07:12:17;;;;;;;5.83;4.97;;;;;;;14.72;67.53;101552.72;6140336;28;20231;-52
2021/09/29 07:15:39;;;;;;;9.10;4.90;;;;;;;15.32;65.92;101557.03;6146763;29;20223;-48
2021/09/29 07:19:03;;;;;;;7.43;4.93;;;;;;;14.79;67.26;101559.59;6140835;28;20252;-50
2021/09/29 07:22:25;;;;;;;7.97;4.87;;;;;;;14.53;68.74;101549.47;6142991;28;20566;-51
2021/09/29 07:25:46;;;;;;;8.77;5.33;;;;;;;15.06;67.04;101536.47;6142164;29;20183;-52
2021/09/29 07:29:09;;;;;;;9.73;5.40;;;;;;;15.33;66.04;101538.66;6139949;28;20243;-54
2021/09/29 07:32:30;;;;;;;5.77;4.50;;;;;;;15.01;66.91;101539.16;6141729;28;20231;-53
2021/09/29 07:35:51;;;;;;;10.43;6.37;;;;;;;15.48;65.79;101529.63;6136207;29;20220;-48
2021/09/29 07:39:14;;;;;;;5.13;4.10;;;;;;;15.20;66.75;101536.22;6138981;28;20227;-52
2021/09/29 07:42:35;;;;;;;7.87;4.97;;;;;;;15.79;64.74;101525.59;6137152;28;20227;-54
2021/09/29 07:45:57;;;;;;;12.93;5.80;;;;;;;15.32;66.13;101523.78;6138185;28;20282;-52
2021/09/29 07:49:21;;;;;;;7.93;5.07;;;;;;;15.30;66.57;101524.72;6135770;28;20235;-51
2021/09/29 07:52:43;;;;;;;7.23;4.90;;;;;;;15.40;66.22;101514.91;6133266;28;20227;-53
2021/09/29 07:56:06;;;;;;;9.87;5.80;;;;;;;15.06;67.17;101519.00;6139771;29;20208;-51
2021/09/29 07:59:27;;;;;;;9.70;5.47;;;;;;;15.50;66.24;101512.06;6140152;28;20235;-52
2021/09/29 08:02:48;;;;;;;6.30;5.00;;;;;;;15.65;65.79;101502.19;6137652;28;20811;-51
2021/09/29 08:06:09;;;;;;;6.97;6.20;;;;;;;15.53;66.31;101485.78;6144506;29;20672;-49
2021/09/29 08:09:29;;;;;;;12.53;7.37;;;;;;;14.95;67.45;101482.44;6139350;28;20231;-50
2021/09/29 08:12:52;;;;;;;7.80;6.03;;;;;;;14.95;68.14;101476.34;6143283;28;20231;-51
2021/09/29 08:16:13;;;;;;;7.20;5.87;;;;;;;15.19;67.25;101454.03;6138633;29;20493;-52
2021/09/29 08:19:34;;;;;;;6.77;6.00;;;;;;;15.42;66.25;101443.13;6143950;28;20231;-52
2021/09/29 08:22:58;;;;;;;9.23;6.00;;;;;;;15.77;65.58;101436.34;6144963;28;20223;-48
2021/09/29 08:26:32;;;;;;;9.87;6.10;;;;;;;15.27;66.87;101440.78;6140049;29;20201;-53
2021/09/29 08:33:42;;;;;;;12.03;7.07;;;;;;;15.59;65.91;101441.94;6318953;27;20899;-53
2021/09/29 08:37:08;;;;;;;9.47;6.60;;;;;;;15.48;66.11;101435.13;6288497;28;20600;-48
2021/09/29 08:40:42;;;;;;;6.97;6.20;;;;;;;15.79;64.79;101445.03;6283449;28;20192;-54
2021/09/29 08:44:07;;;;;;;11.23;6.20;;;;;;;16.04;64.54;101439.28;6280377;28;20223;-53
2021/09/29 08:47:31;;;;;;;6.27;5.47;;;;;;;16.16;64.31;101439.00;6272540;28;20232;-52
2021/09/29 09:16:30;;;;;;;7.70;6.90;;;;;;;15.43;67.49;101431.75;6259557;28;20212;-54
2021/09/29 09:19:50;;;;;;;8.23;7.30;;;;;;;14.93;69.19;101436.16;6292563;28;20611;-51
2021/09/29 09:23:12;;;;;;;8.47;7.50;;;;;;;15.13;68.96;101425.31;6274954;27;20232;-53
2021/09/29 09:26:34;;;;;;;9.10;7.07;;;;;;;15.25;68.83;101435.56;6272890;28;20582;-52
2021/09/29 09:29:55;;;;;;;8.40;7.57;;;;;;;15.18;69.05;101433.97;6253602;28;20606;-50
2021/09/29 09:33:22;;;;;;;10.37;7.70;;;;;;;15.42;68.67;101424.75;6261275;28;20621;-54
2021/09/29 09:36:47;;;;;;;8.03;7.30;;;;;;;15.43;68.86;101426.50;6258655;28;20189;-50
2021/09/29 09:40:11;;;;;;;18.37;9.20;;;;;;;15.71;67.59;101420.69;6259219;28;20225;-53
2021/09/29 09:43:34;;;;;;;10.13;8.47;;;;;;;15.39;69.18;101409.03;6243055;28;20221;-48
2021/09/29 09:47:01;;;;;;;9.83;7.33;;;;;;;15.78;67.33;101400.44;6232660;28;20275;-49
2021/09/29 09:50:28;;;;;;;12.20;7.57;;;;;;;16.27;66.09;101388.84;6238755;28;20251;-51
2021/09/29 09:53:53;;;;;;;6.90;6.20;;;;;;;17.39;62.37;101383.31;6257333;28;20608;-49
2021/09/29 09:57:19;;;;;;;10.00;7.17;;;;;;;17.31;62.43;101386.16;6263661;28;20228;-48
2021/09/29 10:00:41;;;;;;;12.70;6.67;;;;;;;18.75;58.18;101381.75;6233752;28;20201;-53
2021/09/29 10:04:09;;;;;;;10.20;6.90;;;;;;;18.10;59.76;101379.44;6240601;28;20231;-52
2021/09/29 10:07:31;;;;;;;8.77;7.30;;;;;;;17.52;62.22;101368.00;6235689;28;20240;-50
2021/09/29 10:11:02;;;;;;;9.93;6.25;;;;;;;17.13;62.53;101361.19;6228546;28;20216;-46
2021/09/29 10:14:52;;;;;;;8.13;6.50;;;;;;;17.23;62.13;101360.94;6249945;28;20630;-49
2021/09/29 10:26:10;;;;;;;6.47;4.95;;;;;;;21.29;51.93;101335.59;6233815;28;20272;-48
2021/09/29 10:29:38;;;;;;;8.00;6.25;;;;;;;20.94;50.41;101340.69;6242001;28;20490;-48
2021/09/29 10:33:01;;;;;;;7.00;5.15;;;;;;;20.61;52.12;101322.72;6241758;28;20244;-52
2021/09/29 10:44:07;;;;;;;5.70;4.53;;;;;;;20.50;50.43;101324.06;6170116;28;20227;-52
2021/09/29 10:47:34;;;;;;;9.27;5.43;;;;;;;23.39;44.85;101310.13;6241414;28;20224;-52
2021/09/29 10:51:33;;;;;;;7.38;4.88;;;;;;;23.45;43.21;101314.22;6251999;28;20189;-48
2021/09/29 11:06:13;;;;;;;6.07;4.72;;;;;;;20.58;51.77;101296.34;6243930;28;20201;-49
2021/09/29 11:10:04;;;;;;;14.35;5.50;;;;;;;22.86;46.45;101289.94;6273967;28;20558;-48
2021/09/29 11:31:52;;;;;;;5.72;4.95;;;;;;;19.46;54.84;101287.69;6229557;28;20227;-52
2021/09/29 11:35:21;;;;;;;8.82;5.13;;;;;;;19.86;54.01;101275.56;6237680;28;20504;-51
2021/09/29 12:08:15;;;;;;;6.68;3.72;;;;;;;28.19;32.89;101229.84;6233778;28;20224;-49
2021/09/29 12:11:51;;;;;;;4.90;3.58;;;;;;;25.52;37.48;101226.44;6227602;28;20204;-49
2021/09/29 12:15:12;;;;;;;6.20;4.00;;;;;;;22.35;45.18;101226.22;6225406;28;20233;-52
2021/09/29 12:18:34;;;;;;;4.72;3.63;;;;;;;22.51;45.50;101226.31;6224236;28;20225;-52
2021/09/29 12:21:58;;;;;;;6.75;4.15;;;;;;;22.19;47.07;101219.03;6224981;28;20197;-51
2021/09/29 12:25:29;;;;;;;3.42;3.08;;;;;;;21.81;46.86;101213.91;6216783;28;20213;-48
2021/09/29 12:32:33;;;;;;;4.80;2.88;;;;;;;21.00;47.71;101215.13;6237346;28;20327;-53
2021/09/29 12:35:54;;;;;;;3.83;3.22;;;;;;;21.94;46.02;101197.34;6234286;28;20257;-51
2021/09/29 12:39:20;;;;;;;3.40;2.88;;;;;;;24.90;39.71;101193.03;6237268;28;20216;-51
2021/09/29 12:42:42;;;;;;;5.40;3.25;;;;;;;23.99;40.54;101197.72;6224509;28;20225;-53
2021/09/29 12:46:05;;;;;;;8.90;4.88;;;;;;;21.71;47.00;101186.09;6232813;28;20209;-52
2021/09/29 12:49:26;;;;;;;5.50;4.15;;;;;;;22.81;44.56;101186.63;6234401;28;20228;-46
2021/09/29 12:52:51;;;;;;;5.10;4.15;;;;;;;21.15;48.45;101187.94;6229296;28;20235;-48
2021/09/29 12:56:16;;;;;;;4.40;3.22;;;;;;;20.38;49.92;101179.97;6257639;28;20212;-50
2021/09/29 12:59:38;;;;;;;7.50;3.55;;;;;;;21.24;48.18;101173.38;6227974;28;20228;-51
2021/09/29 13:03:02;;;;;;;4.70;3.72;;;;;;;21.26;48.89;101163.56;6226906;28;20231;-52
2021/09/29 13:06:23;;;;;;;8.63;4.45;;;;;;;20.75;50.69;101165.97;6230123;28;20201;-51
2021/09/29 13:09:44;;;;;;;5.63;4.53;;;;;;;19.21;54.99;101166.31;6228187;28;20264;-52
2021/09/29 13:13:05;;;;;;;9.18;5.07;;;;;;;19.98;53.59;101153.47;6235679;28;20231;-52
2021/09/29 13:16:27;;;;;;;6.95;4.72;;;;;;;19.34;54.81;101156.97;6230630;28;20201;-49
2021/09/29 13:19:53;;;;;;;7.07;5.03;;;;;;;19.00;55.89;101163.59;6219206;28;20216;-52
2021/09/29 13:23:16;;;;;;;5.95;4.82;;;;;;;18.97;56.77;101155.78;6228901;28;20610;-48
2021/09/29 13:37:36;;;;;;;11.38;5.63;;;;;;;17.86;61.24;101191.38;6237112;28;20228;-52
2021/09/29 13:40:57;;;;;;;4.90;3.60;;;;;;;16.74;62.86;101187.75;6231388;28;20209;-55
2021/09/29 13:44:19;;;;;;;4.93;2.78;;;;;;;17.23;62.30;101174.09;6236254;28;20220;-51
2021/09/29 13:47:39;;;;;;;5.65;2.97;;;;;;;17.24;63.17;101165.28;6241127;28;20625;-52
2021/09/29 13:51:02;;;;;;;7.15;3.85;;;;;;;17.78;62.40;101160.94;6266705;28;20203;-51
2021/09/29 13:54:24;;;;;;;6.00;2.45;;;;;;;17.67;62.33;101156.00;6255486;28;20295;-52
2021/09/29 13:57:50;;;;;;;5.05;3.40;;;;;;;18.19;61.44;101154.25;6232051;28;20241;-53
2021/09/29 14:01:32;;;;;;;4.03;2.95;;;;;;;18.69;60.48;101148.91;6231933;28;20499;-54
2021/09/29 14:30:29;;;;;;;8.95;3.28;;;;;;;17.44;61.06;101143.59;6264738;28;20204;-50
2021/09/29 14:33:50;;;;;;;6.20;2.47;;;;;;;17.23;60.65;101146.00;6248790;28;20229;-51
2021/09/29 14:37:11;;;;;;;4.28;2.97;;;;;;;17.17;61.70;101156.72;6237650;28;20229;-54
2021/09/29 14:40:32;;;;;;;9.45;3.90;;;;;;;17.44;60.44;101144.44;6233167;28;20225;-51
2021/09/29 14:43:55;;;;;;;9.23;3.17;;;;;;;17.76;59.67;101150.44;6239508;28;20228;-48
2021/09/29 14:47:16;;;;;;;6.57;2.63;;;;;;;17.47;59.92;101141.72;6232380;28;20236;-54
2021/09/29 14:50:38;;;;;;;5.43;2.73;;;;;;;17.78;60.54;101142.50;6223820;28;21114;-50
2021/09/29 14:53:59;;;;;;;4.03;2.72;;;;;;;17.92;59.72;101142.06;6223825;28;20500;-52
2021/09/29 14:57:20;;;;;;;3.80;2.40;;;;;;;18.10;58.61;101136.97;6222189;28;20228;-49
2021/09/29 15:00:43;;;;;;;3.67;2.40;;;;;;;18.20;58.84;101142.78;6230399;28;20192;-52
2021/09/29 15:04:04;;;;;;;9.45;3.92;;;;;;;17.80;60.36;101141.53;6233763;28;20232;-49
2021/09/29 15:07:25;;;;;;;3.20;2.10;;;;;;;17.42;60.69;101134.88;6231846;28;20228;-49
2021/09/29 15:10:46;;;;;;;3.33;2.17;;;;;;;16.80;60.36;101143.78;6233121;28;20244;-49
2021/09/29 15:14:11;;;;;;;3.10;1.70;;;;;;;16.52;59.33;101152.50;6229465;28;20229;-51
2021/09/29 15:17:36;;;;;;;3.07;1.77;;;;;;;16.86;57.13;101154.16;6225727;28;20286;-54
2021/09/29 15:21:17;;;;;;;2.43;1.00;;;;;;;16.05;59.61;101157.28;6225663;28;20571;-53
2021/09/29 15:24:52;;;;;;;2.43;1.53;;;;;;;16.07;59.47;101152.84;6237027;28;20256;-47
2021/09/29 15:28:31;;;;;;;3.87;1.63;;;;;;;15.59;61.71;101189.94;6223504;28;20240;-52
2021/09/29 15:32:00;;;;;;;3.33;1.60;;;;;;;15.59;61.71;101189.94;6232396;28;20232;-54
2021/09/29 15:50:08;;;;;;;2.37;1.33;;;;;;;13.28;80.53;101204.69;6233364;28;20244;-51
2021/09/29 15:53:52;;;;;;;3.10;1.73;;;;;;;13.14;78.22;101208.38;6237019;28;20237;-50
2021/09/29 15:57:34;;;;;;;1.00;1.00;;;;;;;12.85;78.59;101226.16;6236511;28;20224;-52
2021/09/29 16:01:00;;;;;;;1.60;1.10;;;;;;;13.11;78.39;101212.78;6234632;28;20537;-54
2021/09/29 16:04:27;;;;;;;2.93;1.33;;;;;;;12.76;79.08;101233.22;6227523;28;20221;-51
2021/09/29 16:07:57;;;;;;;1.80;1.30;;;;;;;12.85;78.63;101228.78;6240226;28;20235;-54
2021/09/29 16:15:20;;;;;;;3.30;1.83;;;;;;;13.56;76.14;101221.75;6257960;28;20236;-48
2021/09/29 16:30:09;;;;;;;1.60;1.50;;;;;;;13.01;78.04;101253.88;6254558;28;20231;-52
2021/09/29 16:33:46;;;;;;;4.57;1.43;;;;;;;12.70;79.87;101262.06;6228731;28;20237;-51
2021/09/29 16:37:07;;;;;;;4.43;2.23;;;;;;;13.03;78.63;101254.72;6228050;28;20228;-49
2021/09/29 16:40:29;;;;;;;3.30;1.70;;;;;;;13.12;78.46;101257.19;6223232;28;20231;-53
2021/09/29 16:43:50;;;;;;;3.13;2.37;;;;;;;12.83;80.02;101243.59;6223906;28;20221;-54
2021/09/29 16:47:13;;;;;;;2.00;1.90;;;;;;;12.28;80.48;101264.19;6227256;28;20498;-48
2021/09/29 16:50:41;;;;;;;1.87;1.40;;;;;;;13.06;79.87;101257.28;6236427;28;20475;-51
2021/09/29 16:54:08;;;;;;;2.90;1.80;;;;;;;12.71;78.89;101249.84;6231647;28;20347;-51
2021/09/29 16:57:33;;;;;;;2.50;2.30;;;;;;;12.59;79.17;101256.06;6240260;28;20220;-51
2021/09/29 17:00:56;;;;;;;3.93;2.30;;;;;;;12.69;78.80;101251.63;6252696;28;20200;-52
2021/09/29 17:04:18;;;;;;;1.60;1.50;;;;;;;12.62;77.16;101256.06;6233973;28;20233;-53
2021/09/29 17:07:39;;;;;;;1.90;1.80;;;;;;;12.67;76.75;101269.91;6233067;28;20234;-51
2021/09/29 17:11:02;;;;;;;1.40;1.30;;;;;;;12.26;77.14;101272.94;6227191;28;20201;-46
2021/09/29 17:14:22;;;;;;;4.70;1.57;;;;;;;12.13;76.35;101264.31;6228002;28;20224;-52
2021/09/29 17:17:44;;;;;;;2.97;1.80;;;;;;;12.25;77.09;101282.50;6231351;28;20233;-49
2021/09/29 17:21:07;;;;;;;2.90;2.00;;;;;;;12.10;76.77;101287.88;6235588;28;20281;-54
2021/09/29 17:24:29;;;;;;;2.43;1.60;;;;;;;12.07;76.82;101282.66;6221135;28;20678;-56
2021/09/29 17:27:50;;;;;;;2.50;1.37;;;;;;;11.68;77.98;101315.94;6228450;28;21079;-54
2021/09/29 17:31:13;;;;;;;1.97;0.97;;;;;;;11.67;77.02;101306.38;6222799;28;20217;-53
2021/09/29 17:34:41;;;;;;;1.00;0.90;;;;;;;11.90;77.18;101343.66;6225282;28;20630;-52
2021/09/29 17:38:25;;;;;;;1.53;0.90;;;;;;;11.71;77.52;101339.41;6230315;28;20219;-53
2021/09/29 17:52:43;;;;;;;2.20;0.80;;;;;;;11.97;74.16;101349.72;6241114;28;20219;-54
2021/09/29 17:56:06;;;;;;;2.37;0.80;;;;;;;12.01;73.86;101341.84;6255968;28;20213;-53
2021/09/29 17:59:27;;;;;;;1.00;0.90;;;;;;;12.26;73.76;101344.31;6232010;28;20224;-53
2021/09/29 18:02:54;;;;;;;1.10;0.70;;;;;;;-146.32;100.00;58893.91;6227693;28;20232;-52
2021/09/29 18:06:18;;;;;;;2.20;1.13;;;;;;;-146.32;100.00;58893.91;6234762;28;20562;-51
2021/09/29 18:09:39;;;;;;;0.83;0.83;;;;;;;-146.32;100.00;58893.91;6230203;28;20229;-52
2021/09/29 18:13:03;;;;;;;1.03;0.93;;;;;;;-146.32;100.00;58893.91;6229890;28;20220;-48
2021/09/29 18:16:24;;;;;;;1.30;1.10;;;;;;;-146.32;100.00;58893.91;6225035;28;20594;-51
2021/09/29 18:19:45;;;;;;;1.80;1.00;;;;;;;-146.32;100.00;58893.91;6236224;28;20232;-52
2021/09/29 18:23:06;;;;;;;1.43;1.00;;;;;;;-146.32;100.00;58893.91;6229805;28;20256;-51
2021/09/29 18:26:28;;;;;;;1.23;1.13;;;;;;;-146.32;100.00;58893.91;6221915;28;20232;-55
2021/09/29 18:29:52;;;;;;;1.60;1.20;;;;;;;-146.32;100.00;58893.91;6233943;28;20630;-48
2021/09/29 18:33:18;;;;;;;1.00;1.00;;;;;;;-146.32;100.00;58893.91;6237696;28;20315;-52
2021/09/29 18:36:41;;;;;;;1.13;1.03;;;;;;;-146.32;100.00;58893.91;6234868;28;20308;-53
2021/09/29 18:40:02;;;;;;;2.00;1.67;;;;;;;-146.32;100.00;58893.91;6251038;28;20516;-49
2021/09/29 18:43:24;;;;;;;1.67;1.50;;;;;;;-146.32;100.00;58893.91;6249112;28;20236;-54
2021/09/29 18:46:46;;;;;;;1.87;1.77;;;;;;;-146.32;100.00;58893.91;6226489;28;20197;-52
2021/09/29 18:50:08;;;;;;;1.63;1.53;;;;;;;-146.32;100.00;58893.91;6229519;28;20506;-54